TFM - Tactical Decision Aid
ID: Runway Winds: CIG/VIS Threshold:

KPIT - Pittsburgh Intl, PA, US

Updated at: 1101 UTC 15 Jul 2020
Latest TAF at: 0904 UTC 15 Jul 2020

TAF Board

Time1051Z 15/12Z 15/13Z 15/14Z 15/15Z 15/16Z 15/17Z 15/18Z 15/19Z 15/20Z 15/21Z 15/22Z 15/23Z 16/00Z>>
Type OBS PRVL PRVL PRVL PRVL PRVL PRVL PRVL PRVL PRVL PRVL PRVL PRVL PRVL
VIS 10 >6 >6 >6 >6 >6 >6 >6 >6 >6 >6 >6 >6 >6
CIG -- -- -- -- -- -- -- -- -- -- -- -- -- --
Cover FEW SCT SCT SCT SCT SCT SCT SCT SCT SCT SCT SCT SCT SCT
FltCat VFR VFR VFR VFR VFR VFR VFR VFR VFR VFR VFR VFR VFR VFR
WX -- -- -- -- -- -- -- -- -- -- -- -- -- --
WDir VRB VRB VRB 160 160 160 160 160 160 160 160 160 160 160
WSpd 0 0 0 4 4 4 4 4 4 4 4 4 4 4
WGst -- -- -- -- -- -- -- -- -- -- -- -- -- --

TDA Impact Legend

  None Marginal Slight Moderate High
Visibility (sm) >5 3≤X≤5 1≤X<3 0.5≤X<1 <0.5
Ceiling (100 ft) >30 10≤X≤30 4≤X<10 2≤X<4 <2
Wind Speed (kt) <15 15≤X<25 25≤X<30 ≥30
Wind Gust (kt) <15 15≤X<25 25≤X<35 ≥35
Weather No Wx Reported VCTS -TS,-FZRA TS,FZRA +TS,+FZRA
TAF
KPIT 150904Z 1509/1612 00000KT P6SM SCT250
  FM151400 16004KT P6SM SCT250


METAR
KPIT 151051Z 00000KT 10SM FEW250 17/15 A3015 RMK AO2 SLP207 T01720150
KPIT 150951Z 00000KT 10SM FEW250 17/14 A3014 RMK AO2 SLP206 T01670144
KPIT 150851Z 00000KT 10SM FEW250 17/14 A3014 RMK AO2 SLP205 T01670144 53001
KPIT 150751Z 00000KT 10SM SCT250 17/14 A3013 RMK AO2 SLP203 T01720144

Radar Display
Forecast Discussion